sensor_id;sensor_type;location;lat;lon;timestamp;temperature;humidity
67275;DHT22;55463;52.324;5.122;2023-05-20T00:00:10;12.41;80.25
67275;DHT22;55463;52.324;5.122;2023-05-20T00:02:35;12.39;80.14
67275;DHT22;55463;52.324;5.122;2023-05-20T00:05:01;12.42;80.07
67275;DHT22;55463;52.324;5.122;2023-05-20T00:07:26;12.38;80.54
67275;DHT22;55463;52.324;5.122;2023-05-20T00:09:52;12.38;80.33
67275;DHT22;55463;52.324;5.122;2023-05-20T00:12:17;12.34;80.63
67275;DHT22;55463;52.324;5.122;2023-05-20T00:14:43;12.34;80.88
67275;DHT22;55463;52.324;5.122;2023-05-20T00:17:08;12.34;81.10
67275;DHT22;55463;52.324;5.122;2023-05-20T00:19:34;12.34;80.61
67275;DHT22;55463;52.324;5.122;2023-05-20T00:21:59;12.31;80.64
67275;DHT22;55463;52.324;5.122;2023-05-20T00:24:25;12.29;80.87
67275;DHT22;55463;52.324;5.122;2023-05-20T00:26:51;12.26;81.94
67275;DHT22;55463;52.324;5.122;2023-05-20T00:29:16;12.31;81.52
67275;DHT22;55463;52.324;5.122;2023-05-20T00:31:48;12.28;81.21
67275;DHT22;55463;52.324;5.122;2023-05-20T00:34:13;12.29;81.81
67275;DHT22;55463;52.324;5.122;2023-05-20T00:36:39;12.25;81.32
67275;DHT22;55463;52.324;5.122;2023-05-20T00:39:04;12.26;81.34
67275;DHT22;55463;52.324;5.122;2023-05-20T00:41:29;12.24;81.45
67275;DHT22;55463;52.324;5.122;2023-05-20T00:43:55;12.22;81.01
67275;DHT22;55463;52.324;5.122;2023-05-20T00:46:25;12.15;81.66
67275;DHT22;55463;52.324;5.122;2023-05-20T00:48:51;12.18;81.08
67275;DHT22;55463;52.324;5.122;2023-05-20T00:51:16;12.11;81.15
67275;DHT22;55463;52.324;5.122;2023-05-20T00:53:42;12.07;81.67
67275;DHT22;55463;52.324;5.122;2023-05-20T00:56:08;11.98;82.21
67275;DHT22;55463;52.324;5.122;2023-05-20T00:58:34;12.02;81.31
67275;DHT22;55463;52.324;5.122;2023-05-20T01:01:03;11.95;82.31
67275;DHT22;55463;52.324;5.122;2023-05-20T01:03:29;11.91;82.21
67275;DHT22;55463;52.324;5.122;2023-05-20T01:05:54;11.86;82.41
67275;DHT22;55463;52.324;5.122;2023-05-20T01:08:20;11.84;82.18
67275;DHT22;55463;52.324;5.122;2023-05-20T01:10:50;11.79;82.66
67275;DHT22;55463;52.324;5.122;2023-05-20T01:13:20;11.76;82.88
67275;DHT22;55463;52.324;5.122;2023-05-20T01:15:49;11.74;82.43
67275;DHT22;55463;52.324;5.122;2023-05-20T01:18:17;11.70;83.29
67275;DHT22;55463;52.324;5.122;2023-05-20T01:20:47;11.66;82.71
67275;DHT22;55463;52.324;5.122;2023-05-20T01:23:13;11.65;83.26
67275;DHT22;55463;52.324;5.122;2023-05-20T01:25:39;11.63;83.00
67275;DHT22;55463;52.324;5.122;2023-05-20T01:28:06;11.62;83.33
67275;DHT22;55463;52.324;5.122;2023-05-20T01:30:35;11.59;82.74
67275;DHT22;55463;52.324;5.122;2023-05-20T01:33:08;11.56;83.11
67275;DHT22;55463;52.324;5.122;2023-05-20T01:35:35;11.53;83.31
67275;DHT22;55463;52.324;5.122;2023-05-20T01:38:02;11.52;83.37
67275;DHT22;55463;52.324;5.122;2023-05-20T01:40:29;11.51;83.34
67275;DHT22;55463;52.324;5.122;2023-05-20T01:42:55;11.45;84.12
67275;DHT22;55463;52.324;5.122;2023-05-20T01:45:23;11.49;83.39
67275;DHT22;55463;52.324;5.122;2023-05-20T01:47:51;11.46;83.62
67275;DHT22;55463;52.324;5.122;2023-05-20T01:50:17;11.43;84.27
67275;DHT22;55463;52.324;5.122;2023-05-20T01:52:42;11.40;83.73
67275;DHT22;55463;52.324;5.122;2023-05-20T01:55:08;11.35;84.08
67275;DHT22;55463;52.324;5.122;2023-05-20T01:57:33;11.35;84.29
67275;DHT22;55463;52.324;5.122;2023-05-20T01:59:59;11.35;84.34
67275;DHT22;55463;52.324;5.122;2023-05-20T02:02:24;11.32;83.85
67275;DHT22;55463;52.324;5.122;2023-05-20T02:04:52;11.31;84.46
67275;DHT22;55463;52.324;5.122;2023-05-20T02:07:17;11.28;84.50
67275;DHT22;55463;52.324;5.122;2023-05-20T02:09:43;11.27;84.10
67275;DHT22;55463;52.324;5.122;2023-05-20T02:12:09;11.25;84.36
67275;DHT22;55463;52.324;5.122;2023-05-20T02:14:40;11.22;84.14
67275;DHT22;55463;52.324;5.122;2023-05-20T02:17:06;11.19;84.17
67275;DHT22;55463;52.324;5.122;2023-05-20T02:19:31;11.17;83.62
67275;DHT22;55463;52.324;5.122;2023-05-20T02:21:56;11.14;84.52
67275;DHT22;55463;52.324;5.122;2023-05-20T02:24:22;11.10;85.15
67275;DHT22;55463;52.324;5.122;2023-05-20T02:26:47;11.11;84.10
67275;DHT22;55463;52.324;5.122;2023-05-20T02:29:15;11.07;84.28
67275;DHT22;55463;52.324;5.122;2023-05-20T02:31:41;11.06;84.88
67275;DHT22;55463;52.324;5.122;2023-05-20T02:34:06;11.06;84.10
67275;DHT22;55463;52.324;5.122;2023-05-20T02:36:32;11.03;84.33
67275;DHT22;55463;52.324;5.122;2023-05-20T02:38:57;10.99;84.78
67275;DHT22;55463;52.324;5.122;2023-05-20T02:41:23;10.91;84.71
67275;DHT22;55463;52.324;5.122;2023-05-20T02:43:48;10.87;84.54
67275;DHT22;55463;52.324;5.122;2023-05-20T02:46:13;10.80;84.55
67275;DHT22;55463;52.324;5.122;2023-05-20T02:48:40;10.74;84.94
67275;DHT22;55463;52.324;5.122;2023-05-20T02:51:05;10.67;84.21
67275;DHT22;55463;52.324;5.122;2023-05-20T02:53:31;10.66;85.26
67275;DHT22;55463;52.324;5.122;2023-05-20T02:55:56;10.60;85.11
67275;DHT22;55463;52.324;5.122;2023-05-20T02:58:22;10.55;85.71
67275;DHT22;55463;52.324;5.122;2023-05-20T03:00:53;10.52;85.28
67275;DHT22;55463;52.324;5.122;2023-05-20T03:03:19;10.55;87.14
67275;DHT22;55463;52.324;5.122;2023-05-20T03:05:44;10.56;86.89
67275;DHT22;55463;52.324;5.122;2023-05-20T03:08:10;10.57;86.44
67275;DHT22;55463;52.324;5.122;2023-05-20T03:10:37;10.57;88.15
67275;DHT22;55463;52.324;5.122;2023-05-20T03:13:04;10.62;87.25
67275;DHT22;55463;52.324;5.122;2023-05-20T03:15:33;10.63;87.81
67275;DHT22;55463;52.324;5.122;2023-05-20T03:18:00;10.69;88.18
67275;DHT22;55463;52.324;5.122;2023-05-20T03:20:31;10.69;87.30
67275;DHT22;55463;52.324;5.122;2023-05-20T03:22:57;10.67;86.99
67275;DHT22;55463;52.324;5.122;2023-05-20T03:25:23;10.66;86.76
67275;DHT22;55463;52.324;5.122;2023-05-20T03:27:50;10.72;87.47
67275;DHT22;55463;52.324;5.122;2023-05-20T03:30:15;10.69;86.88
67275;DHT22;55463;52.324;5.122;2023-05-20T03:32:41;10.64;85.96
67275;DHT22;55463;52.324;5.122;2023-05-20T03:35:07;10.63;87.45
67275;DHT22;55463;52.324;5.122;2023-05-20T03:37:33;10.62;87.76
67275;DHT22;55463;52.324;5.122;2023-05-20T03:39:59;10.62;87.78
67275;DHT22;55463;52.324;5.122;2023-05-20T03:42:24;10.63;87.23
67275;DHT22;55463;52.324;5.122;2023-05-20T03:44:49;10.62;87.22
67275;DHT22;55463;52.324;5.122;2023-05-20T03:47:15;10.62;87.55
67275;DHT22;55463;52.324;5.122;2023-05-20T03:49:40;10.60;87.40
67275;DHT22;55463;52.324;5.122;2023-05-20T03:52:06;10.62;87.67
67275;DHT22;55463;52.324;5.122;2023-05-20T03:54:32;10.62;87.30
67275;DHT22;55463;52.324;5.122;2023-05-20T03:56:57;10.62;87.61
67275;DHT22;55463;52.324;5.122;2023-05-20T03:59:25;10.57;87.66
67275;DHT22;55463;52.324;5.122;2023-05-20T04:01:51;10.57;88.28
67275;DHT22;55463;52.324;5.122;2023-05-20T04:04:17;10.62;87.51
67275;DHT22;55463;52.324;5.122;2023-05-20T04:06:42;10.60;87.73
67275;DHT22;55463;52.324;5.122;2023-05-20T04:09:07;10.62;87.39
67275;DHT22;55463;52.324;5.122;2023-05-20T04:11:33;10.63;87.80
67275;DHT22;55463;52.324;5.122;2023-05-20T04:13:59;10.64;88.46
67275;DHT22;55463;52.324;5.122;2023-05-20T04:16:24;10.69;88.13
67275;DHT22;55463;52.324;5.122;2023-05-20T04:18:50;10.73;87.75
67275;DHT22;55463;52.324;5.122;2023-05-20T04:21:16;10.74;87.66
67275;DHT22;55463;52.324;5.122;2023-05-20T04:23:43;10.79;87.61
67275;DHT22;55463;52.324;5.122;2023-05-20T04:26:08;10.79;88.24
67275;DHT22;55463;52.324;5.122;2023-05-20T04:28:34;10.81;88.42
67275;DHT22;55463;52.324;5.122;2023-05-20T04:31:02;10.85;87.71
67275;DHT22;55463;52.324;5.122;2023-05-20T04:33:30;10.91;87.50
67275;DHT22;55463;52.324;5.122;2023-05-20T04:35:59;10.91;88.15
67275;DHT22;55463;52.324;5.122;2023-05-20T04:38:25;10.96;87.86
67275;DHT22;55463;52.324;5.122;2023-05-20T04:40:57;11.00;87.61
67275;DHT22;55463;52.324;5.122;2023-05-20T04:43:23;11.03;87.46
67275;DHT22;55463;52.324;5.122;2023-05-20T04:45:49;11.06;87.16
67275;DHT22;55463;52.324;5.122;2023-05-20T04:48:15;11.07;87.73
67275;DHT22;55463;52.324;5.122;2023-05-20T04:50:40;11.11;87.56
67275;DHT22;55463;52.324;5.122;2023-05-20T04:53:06;11.15;87.61
67275;DHT22;55463;52.324;5.122;2023-05-20T04:55:32;11.18;87.52
67275;DHT22;55463;52.324;5.122;2023-05-20T04:57:57;11.24;87.41
67275;DHT22;55463;52.324;5.122;2023-05-20T05:00:23;11.24;86.97
67275;DHT22;55463;52.324;5.122;2023-05-20T05:02:48;11.31;87.14
67275;DHT22;55463;52.324;5.122;2023-05-20T05:05:14;11.38;87.29
67275;DHT22;55463;52.324;5.122;2023-05-20T05:07:40;11.42;87.09
67275;DHT22;55463;52.324;5.122;2023-05-20T05:10:05;11.51;86.77
67275;DHT22;55463;52.324;5.122;2023-05-20T05:12:31;11.53;86.81
67275;DHT22;55463;52.324;5.122;2023-05-20T05:14:56;11.58;86.57
67275;DHT22;55463;52.324;5.122;2023-05-20T05:17:23;11.63;86.42
67275;DHT22;55463;52.324;5.122;2023-05-20T05:19:48;11.66;86.83
67275;DHT22;55463;52.324;5.122;2023-05-20T05:22:13;11.73;86.42
67275;DHT22;55463;52.324;5.122;2023-05-20T05:24:39;11.79;86.31
67275;DHT22;55463;52.324;5.122;2023-05-20T05:27:04;11.83;86.44
67275;DHT22;55463;52.324;5.122;2023-05-20T05:29:30;11.90;85.72
67275;DHT22;55463;52.324;5.122;2023-05-20T05:31:55;11.94;85.59
67275;DHT22;55463;52.324;5.122;2023-05-20T05:34:20;11.94;85.78
67275;DHT22;55463;52.324;5.122;2023-05-20T05:36:46;11.98;85.99
67275;DHT22;55463;52.324;5.122;2023-05-20T05:39:11;12.15;85.97
67275;DHT22;55463;52.324;5.122;2023-05-20T05:41:36;12.34;84.92
67275;DHT22;55463;52.324;5.122;2023-05-20T05:44:03;12.52;84.92
67275;DHT22;55463;52.324;5.122;2023-05-20T05:46:28;12.79;84.65
67275;DHT22;55463;52.324;5.122;2023-05-20T05:48:54;13.11;84.37
67275;DHT22;55463;52.324;5.122;2023-05-20T05:51:19;13.29;83.00
67275;DHT22;55463;52.324;5.122;2023-05-20T05:53:45;13.39;82.50
67275;DHT22;55463;52.324;5.122;2023-05-20T05:56:10;13.63;82.78
67275;DHT22;55463;52.324;5.122;2023-05-20T05:58:35;13.67;81.97
67275;DHT22;55463;52.324;5.122;2023-05-20T06:01:01;14.07;82.12
67275;DHT22;55463;52.324;5.122;2023-05-20T06:03:26;14.07;79.99
67275;DHT22;55463;52.324;5.122;2023-05-20T06:05:54;14.24;80.71
67275;DHT22;55463;52.324;5.122;2023-05-20T06:08:19;14.41;79.55
67275;DHT22;55463;52.324;5.122;2023-05-20T06:10:48;14.55;79.76
67275;DHT22;55463;52.324;5.122;2023-05-20T06:13:17;14.62;78.86
67275;DHT22;55463;52.324;5.122;2023-05-20T06:15:43;15.08;80.25
67275;DHT22;55463;52.324;5.122;2023-05-20T06:18:11;15.24;78.17
67275;DHT22;55463;52.324;5.122;2023-05-20T06:20:36;15.43;77.26
67275;DHT22;55463;52.324;5.122;2023-05-20T06:23:01;15.77;76.90
67275;DHT22;55463;52.324;5.122;2023-05-20T06:25:27;15.86;75.77
67275;DHT22;55463;52.324;5.122;2023-05-20T06:27:52;15.53;75.01
67275;DHT22;55463;52.324;5.122;2023-05-20T06:30:18;15.66;75.47
67275;DHT22;55463;52.324;5.122;2023-05-20T06:32:44;16.01;75.67
67275;DHT22;55463;52.324;5.122;2023-05-20T06:35:09;15.93;73.94
67275;DHT22;55463;52.324;5.122;2023-05-20T06:37:35;16.01;73.44
67275;DHT22;55463;52.324;5.122;2023-05-20T06:40:01;16.41;74.93
67275;DHT22;55463;52.324;5.122;2023-05-20T06:42:26;17.17;74.42
67275;DHT22;55463;52.324;5.122;2023-05-20T06:44:51;17.08;72.77
67275;DHT22;55463;52.324;5.122;2023-05-20T06:47:19;17.21;71.18
67275;DHT22;55463;52.324;5.122;2023-05-20T06:49:45;17.59;71.47
67275;DHT22;55463;52.324;5.122;2023-05-20T06:52:10;18.11;72.41
67275;DHT22;55463;52.324;5.122;2023-05-20T06:54:37;18.02;68.84
67275;DHT22;55463;52.324;5.122;2023-05-20T06:57:06;18.18;70.64
67275;DHT22;55463;52.324;5.122;2023-05-20T06:59:32;18.25;68.95
67275;DHT22;55463;52.324;5.122;2023-05-20T07:01:57;18.36;68.40
67275;DHT22;55463;52.324;5.122;2023-05-20T07:04:23;18.64;68.28
67275;DHT22;55463;52.324;5.122;2023-05-20T07:06:48;18.84;67.61
67275;DHT22;55463;52.324;5.122;2023-05-20T07:09:13;18.70;66.51
67275;DHT22;55463;52.324;5.122;2023-05-20T07:11:39;18.91;66.65
67275;DHT22;55463;52.324;5.122;2023-05-20T07:14:04;19.12;66.47
67275;DHT22;55463;52.324;5.122;2023-05-20T07:16:30;19.38;66.04
67275;DHT22;55463;52.324;5.122;2023-05-20T07:18:58;19.29;65.32
67275;DHT22;55463;52.324;5.122;2023-05-20T07:21:24;19.49;64.36
67275;DHT22;55463;52.324;5.122;2023-05-20T07:23:49;19.52;64.98
67275;DHT22;55463;52.324;5.122;2023-05-20T07:26:15;19.89;64.45
67275;DHT22;55463;52.324;5.122;2023-05-20T07:28:40;20.43;64.25
67275;DHT22;55463;52.324;5.122;2023-05-20T07:31:05;21.04;63.21
67275;DHT22;55463;52.324;5.122;2023-05-20T07:33:31;20.81;61.38
67275;DHT22;55463;52.324;5.122;2023-05-20T07:35:56;20.52;60.71
67275;DHT22;55463;52.324;5.122;2023-05-20T07:38:22;20.60;60.91
67275;DHT22;55463;52.324;5.122;2023-05-20T07:40:47;20.22;61.07
67275;DHT22;55463;52.324;5.122;2023-05-20T07:43:13;20.65;61.21
67275;DHT22;55463;52.324;5.122;2023-05-20T07:45:38;20.90;61.79
67275;DHT22;55463;52.324;5.122;2023-05-20T07:48:04;22.03;59.75
67275;DHT22;55463;52.324;5.122;2023-05-20T07:50:29;22.24;58.98
67275;DHT22;55463;52.324;5.122;2023-05-20T07:52:55;22.05;59.25
67275;DHT22;55463;52.324;5.122;2023-05-20T07:55:20;22.75;59.49
67275;DHT22;55463;52.324;5.122;2023-05-20T07:57:45;23.01;56.57
67275;DHT22;55463;52.324;5.122;2023-05-20T08:00:11;22.75;56.22
67275;DHT22;55463;52.324;5.122;2023-05-20T08:02:37;22.65;56.75
67275;DHT22;55463;52.324;5.122;2023-05-20T08:05:03;22.83;55.63
67275;DHT22;55463;52.324;5.122;2023-05-20T08:07:29;22.63;57.01
67275;DHT22;55463;52.324;5.122;2023-05-20T08:09:55;22.93;57.25
67275;DHT22;55463;52.324;5.122;2023-05-20T08:12:21;23.10;57.21
67275;DHT22;55463;52.324;5.122;2023-05-20T08:14:46;24.04;56.67
67275;DHT22;55463;52.324;5.122;2023-05-20T08:17:11;23.54;54.11
67275;DHT22;55463;52.324;5.122;2023-05-20T08:19:37;22.90;54.90
67275;DHT22;55463;52.324;5.122;2023-05-20T08:22:02;23.06;54.72
67275;DHT22;55463;52.324;5.122;2023-05-20T08:24:28;22.52;53.74
67275;DHT22;55463;52.324;5.122;2023-05-20T08:26:53;22.84;54.09
67275;DHT22;55463;52.324;5.122;2023-05-20T08:29:18;22.22;54.22
67275;DHT22;55463;52.324;5.122;2023-05-20T08:31:44;22.53;53.46
67275;DHT22;55463;52.324;5.122;2023-05-20T08:34:09;22.82;53.94
67275;DHT22;55463;52.324;5.122;2023-05-20T08:36:35;22.72;54.28
67275;DHT22;55463;52.324;5.122;2023-05-20T08:39:00;23.24;54.81
67275;DHT22;55463;52.324;5.122;2023-05-20T08:41:25;22.53;53.67
67275;DHT22;55463;52.324;5.122;2023-05-20T08:43:52;22.75;52.94
67275;DHT22;55463;52.324;5.122;2023-05-20T08:46:17;22.79;53.09
67275;DHT22;55463;52.324;5.122;2023-05-20T08:48:43;22.73;52.76
67275;DHT22;55463;52.324;5.122;2023-05-20T08:51:09;22.42;52.82
67275;DHT22;55463;52.324;5.122;2023-05-20T08:53:35;22.07;52.75
67275;DHT22;55463;52.324;5.122;2023-05-20T08:56:01;22.69;54.14
67275;DHT22;55463;52.324;5.122;2023-05-20T08:58:30;23.12;52.88
67275;DHT22;55463;52.324;5.122;2023-05-20T09:00:56;23.01;53.41
67275;DHT22;55463;52.324;5.122;2023-05-20T09:03:23;23.31;52.28
67275;DHT22;55463;52.324;5.122;2023-05-20T09:05:50;22.89;51.51
67275;DHT22;55463;52.324;5.122;2023-05-20T09:08:15;23.07;52.00
67275;DHT22;55463;52.324;5.122;2023-05-20T09:10:41;22.89;52.04
67275;DHT22;55463;52.324;5.122;2023-05-20T09:13:08;23.07;51.91
67275;DHT22;55463;52.324;5.122;2023-05-20T09:15:34;24.17;51.51
67275;DHT22;55463;52.324;5.122;2023-05-20T09:18:06;23.51;51.56
67275;DHT22;55463;52.324;5.122;2023-05-20T09:20:35;23.41;49.86
67275;DHT22;55463;52.324;5.122;2023-05-20T09:23:06;23.45;50.94
67275;DHT22;55463;52.324;5.122;2023-05-20T09:25:32;23.79;51.30
67275;DHT22;55463;52.324;5.122;2023-05-20T09:27:58;24.68;51.13
67275;DHT22;55463;52.324;5.122;2023-05-20T09:30:23;24.24;48.99
67275;DHT22;55463;52.324;5.122;2023-05-20T09:32:56;23.96;49.61
67275;DHT22;55463;52.324;5.122;2023-05-20T09:35:22;24.82;49.37
67275;DHT22;55463;52.324;5.122;2023-05-20T09:37:52;25.75;50.11
67275;DHT22;55463;52.324;5.122;2023-05-20T09:40:20;25.35;50.73
67275;DHT22;55463;52.324;5.122;2023-05-20T09:43:04;24.59;53.08
67275;DHT22;55463;52.324;5.122;2023-05-20T09:45:29;24.84;53.88
67275;DHT22;55463;52.324;5.122;2023-05-20T09:47:55;24.54;55.34
67275;DHT22;55463;52.324;5.122;2023-05-20T09:50:22;23.73;54.27
67275;DHT22;55463;52.324;5.122;2023-05-20T09:52:48;22.34;58.20
67275;DHT22;55463;52.324;5.122;2023-05-20T09:55:15;22.03;59.17
67275;DHT22;55463;52.324;5.122;2023-05-20T09:57:42;21.77;59.94
67275;DHT22;55463;52.324;5.122;2023-05-20T10:00:07;22.05;60.34
67275;DHT22;55463;52.324;5.122;2023-05-20T10:02:34;21.52;59.33
67275;DHT22;55463;52.324;5.122;2023-05-20T10:05:05;21.59;59.75
67275;DHT22;55463;52.324;5.122;2023-05-20T10:15:53;21.07;62.44
67275;DHT22;55463;52.324;5.122;2023-05-20T10:20:48;21.11;60.73
67275;DHT22;55463;52.324;5.122;2023-05-20T10:23:28;21.46;60.91
67275;DHT22;55463;52.324;5.122;2023-05-20T10:25:57;21.37;60.92
67275;DHT22;55463;52.324;5.122;2023-05-20T10:28:30;22.48;60.24
67275;DHT22;55463;52.324;5.122;2023-05-20T10:30:56;23.17;57.11
67275;DHT22;55463;52.324;5.122;2023-05-20T10:33:24;22.87;57.56
67275;DHT22;55463;52.324;5.122;2023-05-20T10:35:50;22.87;55.03
67275;DHT22;55463;52.324;5.122;2023-05-20T10:38:16;22.65;55.03
67275;DHT22;55463;52.324;5.122;2023-05-20T10:40:42;22.94;56.91
67275;DHT22;55463;52.324;5.122;2023-05-20T10:43:13;22.38;57.74
67275;DHT22;55463;52.324;5.122;2023-05-20T10:45:48;22.93;58.49
67275;DHT22;55463;52.324;5.122;2023-05-20T10:48:27;22.63;56.86
67275;DHT22;55463;52.324;5.122;2023-05-20T10:50:54;22.77;57.96
67275;DHT22;55463;52.324;5.122;2023-05-20T10:53:22;23.69;58.54
67275;DHT22;55463;52.324;5.122;2023-05-20T10:55:49;23.31;56.14
67275;DHT22;55463;52.324;5.122;2023-05-20T10:58:17;23.83;55.13
67275;DHT22;55463;52.324;5.122;2023-05-20T11:00:44;23.62;51.72
67275;DHT22;55463;52.324;5.122;2023-05-20T11:03:10;23.39;52.80
67275;DHT22;55463;52.324;5.122;2023-05-20T11:05:38;22.94;52.54
67275;DHT22;55463;52.324;5.122;2023-05-20T11:08:06;22.65;51.11
67275;DHT22;55463;52.324;5.122;2023-05-20T11:10:35;22.24;52.40
67275;DHT22;55463;52.324;5.122;2023-05-20T11:13:02;22.62;51.99
67275;DHT22;55463;52.324;5.122;2023-05-20T11:15:29;23.58;52.22
67275;DHT22;55463;52.324;5.122;2023-05-20T11:17:56;23.21;49.58
67275;DHT22;55463;52.324;5.122;2023-05-20T11:20:23;22.75;50.40
67275;DHT22;55463;52.324;5.122;2023-05-20T11:22:53;22.89;51.05
67275;DHT22;55463;52.324;5.122;2023-05-20T11:25:19;22.83;50.15
67275;DHT22;55463;52.324;5.122;2023-05-20T11:27:45;22.47;49.29
67275;DHT22;55463;52.324;5.122;2023-05-20T11:30:14;22.34;50.88
67275;DHT22;55463;52.324;5.122;2023-05-20T11:32:42;22.32;52.42
67275;DHT22;55463;52.324;5.122;2023-05-20T11:35:20;22.55;50.25
67275;DHT22;55463;52.324;5.122;2023-05-20T11:37:53;22.89;48.97
67275;DHT22;55463;52.324;5.122;2023-05-20T11:40:23;23.20;49.76
67275;DHT22;55463;52.324;5.122;2023-05-20T11:43:00;23.08;48.50
67275;DHT22;55463;52.324;5.122;2023-05-20T11:45:26;23.25;50.11
67275;DHT22;55463;52.324;5.122;2023-05-20T11:47:59;24.09;50.46
67275;DHT22;55463;52.324;5.122;2023-05-20T11:50:25;24.10;48.12
67275;DHT22;55463;52.324;5.122;2023-05-20T11:52:57;23.97;47.95
67275;DHT22;55463;52.324;5.122;2023-05-20T11:55:24;23.61;48.21
67275;DHT22;55463;52.324;5.122;2023-05-20T11:57:50;23.29;49.71
67275;DHT22;55463;52.324;5.122;2023-05-20T12:00:16;23.44;50.52
67275;DHT22;55463;52.324;5.122;2023-05-20T12:02:42;23.80;49.27
67275;DHT22;55463;52.324;5.122;2023-05-20T12:05:08;23.58;49.81
67275;DHT22;55463;52.324;5.122;2023-05-20T12:07:33;23.58;50.38
67275;DHT22;55463;52.324;5.122;2023-05-20T12:09:58;24.14;49.06
67275;DHT22;55463;52.324;5.122;2023-05-20T12:12:24;24.34;49.32
67275;DHT22;55463;52.324;5.122;2023-05-20T12:14:50;23.84;48.26
67275;DHT22;55463;52.324;5.122;2023-05-20T12:17:15;23.38;50.19
67275;DHT22;55463;52.324;5.122;2023-05-20T12:19:40;23.49;49.46
67275;DHT22;55463;52.324;5.122;2023-05-20T12:22:06;23.65;49.34
67275;DHT22;55463;52.324;5.122;2023-05-20T12:24:31;23.80;49.67
67275;DHT22;55463;52.324;5.122;2023-05-20T12:26:56;24.41;50.12
67275;DHT22;55463;52.324;5.122;2023-05-20T12:29:22;24.34;48.69
67275;DHT22;55463;52.324;5.122;2023-05-20T12:31:47;23.46;48.51
67275;DHT22;55463;52.324;5.122;2023-05-20T12:34:13;23.65;48.82
67275;DHT22;55463;52.324;5.122;2023-05-20T12:36:38;23.89;48.76
67275;DHT22;55463;52.324;5.122;2023-05-20T12:39:04;23.44;49.23
67275;DHT22;55463;52.324;5.122;2023-05-20T12:41:32;23.61;49.30
67275;DHT22;55463;52.324;5.122;2023-05-20T12:43:58;23.70;49.41
67275;DHT22;55463;52.324;5.122;2023-05-20T12:46:23;23.77;48.95
67275;DHT22;55463;52.324;5.122;2023-05-20T12:48:48;24.17;49.63
67275;DHT22;55463;52.324;5.122;2023-05-20T12:51:14;24.25;47.95
67275;DHT22;55463;52.324;5.122;2023-05-20T12:53:39;24.71;47.30
67275;DHT22;55463;52.324;5.122;2023-05-20T12:56:05;24.83;47.36
67275;DHT22;55463;52.324;5.122;2023-05-20T12:58:30;25.10;48.40
67275;DHT22;55463;52.324;5.122;2023-05-20T13:00:55;24.69;48.81
67275;DHT22;55463;52.324;5.122;2023-05-20T13:03:21;24.41;48.37
67275;DHT22;55463;52.324;5.122;2023-05-20T13:05:46;23.76;49.25
67275;DHT22;55463;52.324;5.122;2023-05-20T13:08:11;23.67;48.68
67275;DHT22;55463;52.324;5.122;2023-05-20T13:10:38;23.82;49.58
67275;DHT22;55463;52.324;5.122;2023-05-20T13:13:04;23.51;49.19
67275;DHT22;55463;52.324;5.122;2023-05-20T13:15:29;23.48;49.93
67275;DHT22;55463;52.324;5.122;2023-05-20T13:17:57;23.44;50.11
67275;DHT22;55463;52.324;5.122;2023-05-20T13:20:26;23.55;51.71
67275;DHT22;55463;52.324;5.122;2023-05-20T13:22:51;23.58;52.01
67275;DHT22;55463;52.324;5.122;2023-05-20T13:25:17;23.44;50.98
67275;DHT22;55463;52.324;5.122;2023-05-20T13:27:42;22.84;50.66
67275;DHT22;55463;52.324;5.122;2023-05-20T13:30:08;22.82;51.98
67275;DHT22;55463;52.324;5.122;2023-05-20T13:32:33;22.67;51.78
67275;DHT22;55463;52.324;5.122;2023-05-20T13:35:01;22.70;52.53
67275;DHT22;55463;52.324;5.122;2023-05-20T13:37:26;22.55;52.41
67275;DHT22;55463;52.324;5.122;2023-05-20T13:39:52;22.41;51.88
67275;DHT22;55463;52.324;5.122;2023-05-20T13:42:18;22.39;51.88
67275;DHT22;55463;52.324;5.122;2023-05-20T13:44:43;22.27;51.57
67275;DHT22;55463;52.324;5.122;2023-05-20T13:47:09;22.62;52.08
67275;DHT22;55463;52.324;5.122;2023-05-20T13:49:34;22.63;51.92
67275;DHT22;55463;52.324;5.122;2023-05-20T13:51:59;23.41;52.40
67275;DHT22;55463;52.324;5.122;2023-05-20T13:54:25;23.29;50.00
67275;DHT22;55463;52.324;5.122;2023-05-20T13:56:51;23.22;50.58
67275;DHT22;55463;52.324;5.122;2023-05-20T13:59:17;23.32;52.61
67275;DHT22;55463;52.324;5.122;2023-05-20T14:01:42;23.14;50.73
67275;DHT22;55463;52.324;5.122;2023-05-20T14:04:10;23.07;52.20
67275;DHT22;55463;52.324;5.122;2023-05-20T14:06:36;22.94;51.08
67275;DHT22;55463;52.324;5.122;2023-05-20T14:09:02;22.93;51.76
67275;DHT22;55463;52.324;5.122;2023-05-20T14:11:27;22.94;50.84
67275;DHT22;55463;52.324;5.122;2023-05-20T14:13:52;22.66;51.60
67275;DHT22;55463;52.324;5.122;2023-05-20T14:16:18;22.56;51.36
67275;DHT22;55463;52.324;5.122;2023-05-20T14:18:43;22.41;50.65
67275;DHT22;55463;52.324;5.122;2023-05-20T14:21:10;22.52;51.98
67275;DHT22;55463;52.324;5.122;2023-05-20T14:23:35;22.69;52.90
67275;DHT22;55463;52.324;5.122;2023-05-20T14:26:01;22.77;53.48
67275;DHT22;55463;52.324;5.122;2023-05-20T14:28:26;22.82;52.70
67275;DHT22;55463;52.324;5.122;2023-05-20T14:30:51;23.07;52.93
67275;DHT22;55463;52.324;5.122;2023-05-20T14:33:18;22.77;51.97
67275;DHT22;55463;52.324;5.122;2023-05-20T14:35:43;22.87;51.86
67275;DHT22;55463;52.324;5.122;2023-05-20T14:38:09;22.70;50.40
67275;DHT22;55463;52.324;5.122;2023-05-20T14:40:34;22.86;51.33
67275;DHT22;55463;52.324;5.122;2023-05-20T14:43:00;22.84;51.71
67275;DHT22;55463;52.324;5.122;2023-05-20T14:45:25;22.79;52.57
67275;DHT22;55463;52.324;5.122;2023-05-20T14:47:50;22.47;51.23
67275;DHT22;55463;52.324;5.122;2023-05-20T14:50:16;22.32;51.18
67275;DHT22;55463;52.324;5.122;2023-05-20T14:52:41;22.49;52.15
67275;DHT22;55463;52.324;5.122;2023-05-20T14:55:07;23.10;53.30
67275;DHT22;55463;52.324;5.122;2023-05-20T14:57:32;23.54;52.25
67275;DHT22;55463;52.324;5.122;2023-05-20T14:59:58;23.41;51.57
67275;DHT22;55463;52.324;5.122;2023-05-20T15:02:23;23.41;50.98
67275;DHT22;55463;52.324;5.122;2023-05-20T15:04:48;23.58;52.07
67275;DHT22;55463;52.324;5.122;2023-05-20T15:07:14;23.34;51.08
67275;DHT22;55463;52.324;5.122;2023-05-20T15:09:40;23.27;52.38
67275;DHT22;55463;52.324;5.122;2023-05-20T15:12:06;23.27;51.41
67275;DHT22;55463;52.324;5.122;2023-05-20T15:14:31;23.10;58.69
67275;DHT22;55463;52.324;5.122;2023-05-20T15:16:57;23.07;59.83
67275;DHT22;55463;52.324;5.122;2023-05-20T15:19:22;22.89;60.54
67275;DHT22;55463;52.324;5.122;2023-05-20T15:21:47;22.52;60.59
67275;DHT22;55463;52.324;5.122;2023-05-20T15:24:16;21.92;61.96
67275;DHT22;55463;52.324;5.122;2023-05-20T15:26:41;21.22;64.13
67275;DHT22;55463;52.324;5.122;2023-05-20T15:29:06;21.20;64.36
67275;DHT22;55463;52.324;5.122;2023-05-20T15:31:32;21.05;64.01
67275;DHT22;55463;52.324;5.122;2023-05-20T15:33:57;21.08;65.24